Time;durP1;ratioP1;P1;durP2;ratioP2;P2;SDS_P1;SDS_P2;PMS_P1;PMS_P2;Temp;Humidity;BMP_temperature;BMP_pressure;BME280_temperature;BME280_humidity;BME280_pressure;Samples;Min_cycle;Max_cycle;Signal;HPM_P1;HPM_P2
2021/01/19 00:01:26;;;;;;;;;;;;;;;-15.34;70.00;100989.49;1754807;80;20690;-78
2021/01/19 00:03:54;;;;;;;;;;;;;;;-15.32;70.13;100991.53;1743147;80;20226;-81
2021/01/19 00:06:21;;;;;;;;;;;;;;;-15.28;70.17;100992.55;1754413;81;21447;-80
2021/01/19 00:08:48;;;;;;;;;;;;;;;-15.20;70.17;100993.42;1756381;80;20744;-77
2021/01/19 00:11:16;;;;;;;;;;;;;;;-15.19;70.07;100995.09;1763607;80;20245;-78
2021/01/19 00:13:43;;;;;;;;;;;;;;;-15.19;70.11;100997.20;1749168;80;20273;-78
2021/01/19 00:16:10;;;;;;;;;;;;;;;-15.19;69.94;100998.48;1755190;80;20401;-81
2021/01/19 00:18:37;;;;;;;;;;;;;;;-15.26;69.78;100995.88;1754723;80;21890;-80
2021/01/19 00:21:05;;;;;;;;;;;;;;;-15.34;69.84;100997.17;1752358;81;20303;-79
2021/01/19 00:23:32;;;;;;;;;;;;;;;-15.38;69.83;100998.61;1745642;81;20283;-81
2021/01/19 00:26:00;;;;;;;;;;;;;;;-15.42;69.89;100988.63;1747311;81;20312;-79
2021/01/19 00:28:27;;;;;;;;;;;;;;;-15.42;69.98;100989.44;1744501;80;20268;-80
2021/01/19 00:30:54;;;;;;;;;;;;;;;-15.39;70.06;100990.56;1630860;81;9999811;-80
2021/01/19 00:33:22;;;;;;;;;;;;;;;-15.35;70.00;100992.52;1756834;80;20272;-79
2021/01/19 00:35:49;;;;;;;;;;;;;;;-15.34;70.04;100987.75;1749695;81;20311;-80
2021/01/19 00:38:16;;;;;;;;;;;;;;;-15.27;70.03;100983.13;1748025;79;20569;-79
2021/01/19 00:40:44;;;;;;;;;;;;;;;-15.29;69.86;100984.97;1750362;80;21369;-78
2021/01/19 00:43:11;;;;;;;;;;;;;;;-15.34;69.81;100984.37;1745327;80;20326;-78
2021/01/19 00:45:39;;;;;;;;;;;;;;;-15.41;69.81;100977.45;1745606;81;20291;-78
2021/01/19 00:48:07;;;;;;;;;;;;;;;-15.44;69.93;100973.31;1753615;79;20297;-78
2021/01/19 00:50:35;;;;;;;;;;;;;;;-15.46;69.98;100976.43;1751435;80;20579;-78
2021/01/19 00:53:02;;;;;;;;;;;;;;;-15.46;70.08;100966.61;1755740;80;21826;-80
2021/01/19 00:55:30;;;;;;;;;;;;;;;-15.47;70.14;100966.25;1739058;80;20315;-82
2021/01/19 00:57:57;;;;;;;;;;;;;;;-15.47;70.24;100967.53;1740992;80;20608;-82
2021/01/19 01:00:25;;;;;;;;;;;;;;;-15.44;70.29;100964.81;1751887;80;20267;-78
2021/01/19 01:02:53;;;;;;;;;;;;;;;-15.38;70.38;100965.31;1754468;80;20276;-78
2021/01/19 01:05:21;;;;;;;;;;;;;;;-15.28;70.46;100963.09;1748228;80;22397;-78
2021/01/19 01:07:48;;;;;;;;;;;;;;;-15.17;70.44;100968.47;1748533;80;20332;-78
2021/01/19 01:10:16;;;;;;;;;;;;;;;-15.11;70.38;100966.04;1755370;79;20278;-78
2021/01/19 01:12:44;;;;;;;;;;;;;;;-15.08;70.31;100960.75;1746833;79;20286;-78
2021/01/19 01:15:13;;;;;;;;;;;;;;;-15.03;70.26;100963.09;1755345;80;20268;-78
2021/01/19 01:17:40;;;;;;;;;;;;;;;-14.96;70.24;100965.22;1750476;80;21351;-78
2021/01/19 01:20:08;;;;;;;;;;;;;;;-14.93;70.08;100956.09;1752993;80;21033;-78
2021/01/19 01:22:42;;;;;;;;;;;;;;;-14.97;69.95;100965.29;1764488;79;20296;-78
2021/01/19 01:28:54;;;;;;;;;;;;;;;-15.17;69.92;100954.38;1754210;80;20256;-78
2021/01/19 01:31:22;;;;;;;;;;;;;;;-15.08;70.09;100959.93;1759034;79;21794;-77
2021/01/19 01:33:50;;;;;;;;;;;;;;;-15.05;69.92;100958.03;1754102;81;21160;-78
2021/01/19 01:36:17;;;;;;;;;;;;;;;-15.13;69.89;100957.62;1741757;80;20517;-79
2021/01/19 01:38:45;;;;;;;;;;;;;;;-15.11;70.05;100951.95;1748176;79;21119;-77
2021/01/19 01:41:19;;;;;;;;;;;;;;;-15.07;70.00;100953.42;1749294;79;20295;-78
2021/01/19 01:43:46;;;;;;;;;;;;;;;-15.07;69.85;100959.01;1761960;81;21196;-77
2021/01/19 01:46:17;;;;;;;;;;;;;;;-15.17;69.72;100954.38;1756388;80;20205;-78
2021/01/19 01:48:47;;;;;;;;;;;;;;;-15.27;69.82;100963.92;1763386;79;20306;-79
2021/01/19 01:51:14;;;;;;;;;;;;;;;-15.34;69.95;100962.14;1761681;79;20289;-78
2021/01/19 01:53:42;;;;;;;;;;;;;;;-15.35;70.04;100957.11;1736465;79;20239;-78
2021/01/19 01:56:11;;;;;;;;;;;;;;;-15.33;70.11;100961.68;1756367;80;21406;-79
2021/01/19 01:58:39;;;;;;;;;;;;;;;-15.28;70.18;100956.70;1752434;80;20241;-77
2021/01/19 02:01:06;;;;;;;;;;;;;;;-15.25;70.11;100959.55;1753063;80;20299;-77
2021/01/19 02:03:33;;;;;;;;;;;;;;;-15.24;70.16;100961.20;1756977;81;20303;-78
2021/01/19 02:06:01;;;;;;;;;;;;;;;-15.23;70.16;100956.01;1755971;80;20606;-78
2021/01/19 02:08:51;;;;;;;;;;;;;;;-15.27;69.94;100961.36;1754228;80;21788;-77
2021/01/19 02:11:25;;;;;;;;;;;;;;;-15.34;69.99;100967.27;1753773;81;20213;-77
2021/01/19 02:14:19;;;;;;;;;;;;;;;-15.35;70.04;100966.89;1735655;81;20212;-77
2021/01/19 02:17:12;;;;;;;;;;;;;;;-15.31;70.06;100966.28;1742052;79;20576;-78
2021/01/19 02:20:18;;;;;;;;;;;;;;;-15.35;69.96;100968.64;1749215;80;20388;-78
2021/01/19 02:23:09;;;;;;;;;;;;;;;-15.45;70.02;100966.55;1749723;80;21196;-78
2021/01/19 02:26:00;;;;;;;;;;;;;;;-15.47;70.09;100970.09;1752952;80;20225;-78
2021/01/19 02:28:42;;;;;;;;;;;;;;;-15.49;70.06;100980.43;1761192;80;20491;-78
2021/01/19 02:31:47;;;;;;;;;;;;;;;-15.51;70.08;100968.61;1752847;80;20243;-78
2021/01/19 02:34:21;;;;;;;;;;;;;;;-15.50;70.07;100965.95;1736565;81;20264;-77
2021/01/19 02:37:08;;;;;;;;;;;;;;;-15.50;70.09;100966.41;1739008;81;21831;-77
2021/01/19 02:39:44;;;;;;;;;;;;;;;-15.54;70.13;100959.80;1759093;80;20311;-77
2021/01/19 02:42:12;;;;;;;;;;;;;;;-15.57;70.20;100959.50;1756710;80;20216;-77
2021/01/19 02:44:40;;;;;;;;;;;;;;;-15.59;70.29;100960.05;1757224;81;20220;-76
2021/01/19 02:47:07;;;;;;;;;;;;;;;-15.59;70.35;100958.77;1739315;81;20494;-77
2021/01/19 02:49:35;;;;;;;;;;;;;;;-15.58;70.37;100956.58;1748935;80;21050;-78
2021/01/19 02:52:02;;;;;;;;;;;;;;;-15.53;70.38;100965.28;1759999;79;20228;-78
2021/01/19 02:54:29;;;;;;;;;;;;;;;-15.54;70.36;100961.91;1756999;81;20233;-77
2021/01/19 02:57:03;;;;;;;;;;;;;;;-15.59;70.39;100966.45;1699185;81;20263;-78
2021/01/19 02:59:40;;;;;;;;;;;;;;;-15.60;70.45;100971.17;1727094;80;20282;-78
2021/01/19 03:02:16;;;;;;;;;;;;;;;-15.58;70.46;100971.94;1738552;81;22103;-78
2021/01/19 03:04:43;;;;;;;;;;;;;;;-15.59;70.50;100967.73;1750613;80;20222;-78
2021/01/19 03:07:11;;;;;;;;;;;;;;;-15.58;70.53;100959.59;1728017;81;20224;-78
2021/01/19 03:09:39;;;;;;;;;;;;;;;-15.55;70.52;100964.09;1756586;80;20274;-79
2021/01/19 03:12:07;;;;;;;;;;;;;;;-15.55;70.52;100960.26;1762212;80;20706;-78
2021/01/19 03:14:36;;;;;;;;;;;;;;;-15.55;70.54;100957.70;1754659;79;21712;-78
2021/01/19 03:17:04;;;;;;;;;;;;;;;-15.54;70.44;100958.06;1746426;81;20644;-78
2021/01/19 03:19:37;;;;;;;;;;;;;;;-15.58;70.45;100952.73;1738186;81;20227;-78
2021/01/19 03:22:07;;;;;;;;;;;;;;;-15.61;70.50;100949.88;1751096;80;20272;-78
2021/01/19 03:24:34;;;;;;;;;;;;;;;-15.62;70.56;100952.07;1753877;81;20229;-77
2021/01/19 03:27:02;;;;;;;;;;;;;;;-15.61;70.58;100951.61;1751014;81;21375;-77
2021/01/19 03:29:29;;;;;;;;;;;;;;;-15.61;70.57;100950.33;1758654;81;20220;-77
2021/01/19 03:31:56;;;;;;;;;;;;;;;-15.66;70.55;100947.20;1749669;79;20283;-77
2021/01/19 03:34:24;;;;;;;;;;;;;;;-15.69;70.58;100945.65;1750774;81;20227;-77
2021/01/19 03:36:52;;;;;;;;;;;;;;;-15.71;70.61;100951.29;1711669;81;20215;-77
2021/01/19 03:39:20;;;;;;;;;;;;;;;-15.74;70.67;100950.62;1760673;81;21835;-78
2021/01/19 03:41:47;;;;;;;;;;;;;;;-15.74;70.73;100962.14;1754617;81;20499;-78
2021/01/19 03:44:14;;;;;;;;;;;;;;;-15.78;70.72;100956.35;1749160;80;20222;-79
2021/01/19 03:46:41;;;;;;;;;;;;;;;-15.78;70.77;100960.20;1763512;81;20310;-79
2021/01/19 03:49:09;;;;;;;;;;;;;;;-15.77;70.84;100961.84;1760642;81;20280;-78
2021/01/19 03:51:36;;;;;;;;;;;;;;;-15.77;70.89;100952.88;1757346;80;22238;-78
2021/01/19 03:54:04;;;;;;;;;;;;;;;-15.74;70.87;100952.72;1769847;79;20218;-78
2021/01/19 03:56:32;;;;;;;;;;;;;;;-15.70;70.91;100963.17;1770243;79;20637;-77
2021/01/19 03:58:59;;;;;;;;;;;;;;;-15.66;70.96;100951.86;1748997;81;20247;-78
2021/01/19 04:01:27;;;;;;;;;;;;;;;-15.60;70.87;100958.38;1755635;80;20242;-78
2021/01/19 04:03:54;;;;;;;;;;;;;;;-15.61;70.80;100960.57;1752612;79;21925;-77
2021/01/19 04:06:24;;;;;;;;;;;;;;;-15.64;70.83;100950.03;1761948;81;20637;-77
2021/01/19 04:08:51;;;;;;;;;;;;;;;-15.62;70.86;100947.41;1759547;81;20276;-77
2021/01/19 04:11:19;;;;;;;;;;;;;;;-15.66;70.73;100940.34;1755263;80;20373;-78
2021/01/19 04:13:46;;;;;;;;;;;;;;;-15.71;70.60;100946.63;1755521;80;20267;-77
2021/01/19 04:16:15;;;;;;;;;;;;;;;-15.78;70.60;100947.86;1761206;81;21380;-77
2021/01/19 04:18:45;;;;;;;;;;;;;;;-15.88;70.58;100943.20;1762955;79;20237;-77
2021/01/19 04:21:12;;;;;;;;;;;;;;;-15.90;70.63;100951.85;1748673;80;20319;-78
2021/01/19 04:23:40;;;;;;;;;;;;;;;-15.95;70.57;100950.81;1753134;81;20250;-77
2021/01/19 04:26:08;;;;;;;;;;;;;;;-15.99;70.57;100953.13;1746265;80;20628;-77
2021/01/19 04:28:35;;;;;;;;;;;;;;;-16.02;70.62;100955.87;1755449;81;21630;-78
2021/01/19 04:31:03;;;;;;;;;;;;;;;-16.01;70.59;100954.14;1748699;81;20216;-78
2021/01/19 04:33:33;;;;;;;;;;;;;;;-16.02;70.62;100958.44;1758437;79;20282;-77
2021/01/19 04:36:01;;;;;;;;;;;;;;;-16.04;70.57;100957.67;1758930;81;20284;-78
2021/01/19 04:38:29;;;;;;;;;;;;;;;-16.04;70.60;100953.83;1753138;81;20256;-78
2021/01/19 04:40:57;;;;;;;;;;;;;;;-16.04;70.57;100956.39;1760904;80;21817;-78
2021/01/19 04:43:24;;;;;;;;;;;;;;;-16.09;70.55;100966.02;1756397;80;20283;-78
2021/01/19 04:45:52;;;;;;;;;;;;;;;-16.14;70.56;100967.98;1750245;81;20213;-76
2021/01/19 04:48:20;;;;;;;;;;;;;;;-16.19;70.57;100962.26;1749592;80;20269;-78
2021/01/19 04:50:48;;;;;;;;;;;;;;;-16.25;70.59;100976.63;1759966;81;20228;-78
2021/01/19 04:53:15;;;;;;;;;;;;;;;-16.35;70.64;100977.09;1752614;80;21215;-77
2021/01/19 04:55:48;;;;;;;;;;;;;;;-16.39;70.73;100978.58;1726213;81;20283;-77
2021/01/19 04:58:18;;;;;;;;;;;;;;;-16.41;70.79;100982.95;1753804;81;20201;-76
2021/01/19 05:00:45;;;;;;;;;;;;;;;-16.46;70.80;100981.88;1754940;81;20260;-77
2021/01/19 05:03:21;;;;;;;;;;;;;;;-16.47;70.84;100984.07;1736339;79;20907;-78
2021/01/19 05:05:59;;;;;;;;;;;;;;;-16.47;70.87;100990.46;1731336;81;22779;-77
2021/01/19 05:08:32;;;;;;;;;;;;;;;-16.47;70.88;100990.46;1752872;81;20265;-77
2021/01/19 05:11:00;;;;;;;;;;;;;;;-16.41;70.91;100995.74;1748450;81;20233;-77
2021/01/19 05:13:59;;;;;;;;;;;;;;;-16.44;70.90;100996.70;1750580;80;20295;-77
2021/01/19 05:16:30;;;;;;;;;;;;;;;-16.48;70.89;100991.38;1750370;79;20598;-77
2021/01/19 05:18:58;;;;;;;;;;;;;;;-16.50;70.90;101002.11;1759689;80;21218;-76
2021/01/19 05:21:25;;;;;;;;;;;;;;;-16.46;70.95;101004.06;1761851;80;21064;-77
2021/01/19 05:23:54;;;;;;;;;;;;;;;-16.48;70.88;101001.59;1751180;79;20243;-77
2021/01/19 05:26:23;;;;;;;;;;;;;;;-16.49;70.91;101002.94;1781710;79;20746;-78
2021/01/19 05:28:52;;;;;;;;;;;;;;;-16.50;70.91;101000.83;1761442;80;20580;-78
2021/01/19 05:31:28;;;;;;;;;;;;;;;-16.52;70.92;100998.78;1734884;82;21340;-78
2021/01/19 05:33:59;;;;;;;;;;;;;;;-16.53;70.94;101006.54;1750460;80;20283;-78
2021/01/19 05:36:32;;;;;;;;;;;;;;;-16.52;70.95;101005.17;1735405;80;20251;-77
2021/01/19 05:39:00;;;;;;;;;;;;;;;-16.49;70.93;101008.05;1728159;80;20547;-77
2021/01/19 05:41:41;;;;;;;;;;;;;;;-16.49;70.93;101019.55;1752911;80;20258;-76
2021/01/19 05:44:14;;;;;;;;;;;;;;;-16.54;70.95;101016.40;1754040;80;21504;-77
2021/01/19 05:46:53;;;;;;;;;;;;;;;-16.57;71.05;101023.75;1747980;80;20216;-77
2021/01/19 05:49:26;;;;;;;;;;;;;;;-16.60;71.04;101015.77;1783403;80;20285;-78
2021/01/19 05:52:02;;;;;;;;;;;;;;;-16.62;71.08;101015.00;1779241;80;20226;-76
2021/01/19 05:54:37;;;;;;;;;;;;;;;-16.61;71.13;101014.58;1780047;80;20229;-78
2021/01/19 05:57:07;;;;;;;;;;;;;;;-16.56;71.16;101008.78;1742989;82;21391;-78
2021/01/19 06:00:02;;;;;;;;;;;;;;;-16.56;71.08;101012.16;1752948;80;20208;-77
2021/01/19 06:02:39;;;;;;;;;;;;;;;-16.55;71.02;101012.98;1717235;80;20260;-77
2021/01/19 06:05:14;;;;;;;;;;;;;;;-16.57;70.97;101014.36;1742525;80;20324;-77
2021/01/19 06:07:46;;;;;;;;;;;;;;;-16.57;71.00;101016.91;1730145;82;20229;-78
2021/01/19 06:10:15;;;;;;;;;;;;;;;-16.57;70.98;101016.09;1745605;80;22364;-79
2021/01/19 06:12:43;;;;;;;;;;;;;;;-16.60;70.91;101018.78;1755297;81;20220;-77
2021/01/19 06:15:11;;;;;;;;;;;;;;;-16.62;70.95;101015.00;1761301;80;20220;-78
2021/01/19 06:17:38;;;;;;;;;;;;;;;-16.62;70.92;101020.57;1779635;79;20817;-79
2021/01/19 06:20:07;;;;;;;;;;;;;;;-16.67;70.89;101018.24;1747654;82;20279;-77
2021/01/19 06:22:35;;;;;;;;;;;;;;;-16.70;70.90;101023.49;1755075;80;22388;-78
2021/01/19 06:25:05;;;;;;;;;;;;;;;-16.74;70.91;101019.92;1761074;80;20248;-77
2021/01/19 06:27:34;;;;;;;;;;;;;;;-16.73;70.95;101018.98;1771527;79;20499;-77
2021/01/19 06:30:05;;;;;;;;;;;;;;;-16.69;70.96;101020.03;1775185;80;20303;-79
2021/01/19 06:32:36;;;;;;;;;;;;;;;-16.69;70.91;101022.59;1776988;80;20221;-78
2021/01/19 06:35:22;;;;;;;;;;;;;;;-16.71;70.88;101031.22;1779513;79;21818;-79
2021/01/19 06:37:51;;;;;;;;;;;;;;;-16.73;70.94;101040.25;1772833;79;20282;-77
2021/01/19 06:40:20;;;;;;;;;;;;;;;-16.71;71.01;101044.84;1736273;81;20348;-78
2021/01/19 06:42:56;;;;;;;;;;;;;;;-16.67;71.02;101042.98;1755849;80;20215;-78
2021/01/19 06:45:23;;;;;;;;;;;;;;;-16.65;70.98;101041.16;1745733;80;20311;-77
2021/01/19 06:47:51;;;;;;;;;;;;;;;-16.61;70.94;101040.14;1748267;80;21646;-77
2021/01/19 06:50:21;;;;;;;;;;;;;;;-16.58;70.96;101043.80;1734357;82;20256;-77
2021/01/19 06:53:22;;;;;;;;;;;;;;;-16.59;70.88;101039.15;1756147;80;20284;-78
2021/01/19 06:56:14;;;;;;;;;;;;;;;-16.60;70.86;101034.13;1752206;80;20287;-78
2021/01/19 06:58:53;;;;;;;;;;;;;;;-16.54;70.94;101036.39;1774415;79;20285;-77
2021/01/19 07:01:24;;;;;;;;;;;;;;;-16.42;70.92;101051.14;1751269;81;21802;-77
2021/01/19 07:04:15;;;;;;;;;;;;;;;-16.30;70.82;101048.47;1762655;80;20264;-77
2021/01/19 07:07:19;;;;;;;;;;;;;;;-16.22;70.79;101042.55;1756326;79;20544;-77
2021/01/19 07:09:51;;;;;;;;;;;;;;;-16.09;70.61;101051.28;1750045;81;20666;-79
2021/01/19 07:12:22;;;;;;;;;;;;;;;-15.98;70.58;101052.03;1758390;80;20276;-78
2021/01/19 07:15:05;;;;;;;;;;;;;;;-15.93;70.39;101060.30;1705720;80;22248;-78
2021/01/19 07:17:36;;;;;;;;;;;;;;;-15.89;70.27;101047.75;1756180;79;20664;-78
2021/01/19 07:20:05;;;;;;;;;;;;;;;-15.76;70.22;101048.41;1755866;81;20216;-77
2021/01/19 07:22:51;;;;;;;;;;;;;;;-15.66;70.12;101049.59;1729495;81;20697;-79
2021/01/19 07:25:18;;;;;;;;;;;;;;;-15.51;70.15;101051.83;1759891;80;20324;-77
2021/01/19 07:27:46;;;;;;;;;;;;;;;-15.28;70.05;101048.09;1752477;80;21813;-78
2021/01/19 07:30:14;;;;;;;;;;;;;;;-15.03;69.66;101047.65;1750763;80;20214;-77
2021/01/19 07:32:42;;;;;;;;;;;;;;;-14.92;69.39;101051.28;1744387;80;20506;-79
2021/01/19 07:35:11;;;;;;;;;;;;;;;-14.80;69.08;101054.13;1729557;80;20490;-77
2021/01/19 07:37:39;;;;;;;;;;;;;;;-14.74;68.84;101053.77;1758835;79;20332;-78
2021/01/19 07:40:20;;;;;;;;;;;;;;;-14.67;68.80;101054.66;1758828;80;22245;-77
2021/01/19 07:42:47;;;;;;;;;;;;;;;-14.61;68.57;101059.89;1755185;81;20322;-79
2021/01/19 07:45:15;;;;;;;;;;;;;;;-14.52;68.27;101051.70;1759140;80;20241;-78
2021/01/19 07:47:44;;;;;;;;;;;;;;;-14.42;68.00;101053.28;1759844;80;20308;-77
2021/01/19 07:50:15;;;;;;;;;;;;;;;-14.33;67.62;101059.19;1766665;79;20251;-77
2021/01/19 07:52:47;;;;;;;;;;;;;;;-14.25;67.35;101059.58;1744773;81;21420;-77
2021/01/19 07:55:24;;;;;;;;;;;;;;;-14.21;66.85;101062.83;1756060;81;20459;-75
2021/01/19 07:57:54;;;;;;;;;;;;;;;-14.14;66.59;101062.03;1754523;79;20228;-77
2021/01/19 08:00:23;;;;;;;;;;;;;;;-14.10;66.51;101060.94;1755811;81;20235;-77
2021/01/19 08:03:04;;;;;;;;;;;;;;;-14.03;66.27;101062.24;1759847;81;20268;-78
2021/01/19 08:05:32;;;;;;;;;;;;;;;-13.98;66.04;101058.51;1758384;81;22302;-79
2021/01/19 08:08:00;;;;;;;;;;;;;;;-13.97;65.36;101064.00;1762111;79;20241;-78
2021/01/19 08:10:30;;;;;;;;;;;;;;;-13.96;65.33;101065.65;1746845;80;20665;-77
2021/01/19 08:12:58;;;;;;;;;;;;;;;-13.93;64.97;101063.83;1755021;80;20871;-77
2021/01/19 08:15:33;;;;;;;;;;;;;;;-13.89;64.88;101062.73;1759792;81;20244;-78
2021/01/19 08:18:02;;;;;;;;;;;;;;;-13.79;64.72;101067.71;1753174;79;21398;-76
2021/01/19 08:20:36;;;;;;;;;;;;;;;-13.72;64.50;101070.30;1759763;79;20237;-77
2021/01/19 08:23:11;;;;;;;;;;;;;;;-13.63;64.43;101072.80;1756960;81;20236;-78
2021/01/19 08:25:40;;;;;;;;;;;;;;;-13.50;64.25;101073.28;1754286;80;20272;-78
2021/01/19 08:28:08;;;;;;;;;;;;;;;-13.37;63.95;101071.28;1753574;79;20590;-78
2021/01/19 08:30:40;;;;;;;;;;;;;;;-13.39;62.88;101073.95;1752080;79;21335;-78
2021/01/19 08:33:08;;;;;;;;;;;;;;;-13.51;62.91;101066.50;1754576;80;21066;-78
2021/01/19 08:35:38;;;;;;;;;;;;;;;-13.43;62.84;101062.64;1756061;81;20299;-78
2021/01/19 08:38:05;;;;;;;;;;;;;;;-13.42;62.67;101060.44;1757531;79;20598;-78
2021/01/19 08:40:36;;;;;;;;;;;;;;;-13.41;62.28;101059.08;1755047;81;20237;-77
2021/01/19 08:43:06;;;;;;;;;;;;;;;-13.55;62.10;101054.75;1758874;81;21385;-77
2021/01/19 08:45:42;;;;;;;;;;;;;;;-13.62;62.11;101061.59;1729757;81;20335;-77
2021/01/19 08:48:09;;;;;;;;;;;;;;;-13.62;62.06;101056.03;1754848;80;20232;-78
2021/01/19 08:50:42;;;;;;;;;;;;;;;-13.53;62.05;101055.47;1761115;81;20245;-77
2021/01/19 08:53:14;;;;;;;;;;;;;;;-13.37;62.04;101054.12;1633244;80;10000980;-80
2021/01/19 08:55:44;;;;;;;;;;;;;;;-13.17;62.05;101054.18;1578648;83;10000492;-77
2021/01/19 08:58:18;;;;;;;;;;;;;;;-12.92;61.90;101043.72;1696140;83;20181;-79
2021/01/19 09:00:46;;;;;;;;;;;;;;;-12.73;61.19;101032.66;1689083;82;21488;-76
2021/01/19 09:03:17;;;;;;;;;;;;;;;-12.66;61.25;101034.39;1694557;83;20327;-78
2021/01/19 09:05:46;;;;;;;;;;;;;;;-12.70;60.31;101032.44;1692309;82;20323;-80
2021/01/19 09:08:15;;;;;;;;;;;;;;;-12.78;60.31;101034.68;1707567;82;20575;-79
2021/01/19 09:10:43;;;;;;;;;;;;;;;-12.73;60.43;101026.66;1701738;82;20640;-78
2021/01/19 09:13:11;;;;;;;;;;;;;;;-12.72;60.35;101022.73;1703688;82;22298;-81
2021/01/19 09:15:41;;;;;;;;;;;;;;;-12.68;60.18;101024.64;1699980;82;20318;-80
2021/01/19 09:18:12;;;;;;;;;;;;;;;-12.66;59.60;101024.92;1698363;84;20299;-82
2021/01/19 09:20:41;;;;;;;;;;;;;;;-12.79;59.57;101025.32;1701766;82;20298;-81
2021/01/19 09:23:17;;;;;;;;;;;;;;;-12.86;59.55;101029.20;1680072;84;20864;-80
2021/01/19 09:25:46;;;;;;;;;;;;;;;-12.87;59.80;101019.34;1698060;80;21378;-78
2021/01/19 09:28:14;;;;;;;;;;;;;;;-12.76;59.83;101023.84;1754157;80;20572;-82
2021/01/19 09:30:42;;;;;;;;;;;;;;;-12.65;59.77;101025.27;1734774;81;20301;-79
2021/01/19 09:33:10;;;;;;;;;;;;;;;-12.54;59.34;101018.98;1758713;81;20680;-79
2021/01/19 09:35:40;;;;;;;;;;;;;;;-12.65;58.90;101020.13;1758390;81;20303;-79
2021/01/19 09:38:14;;;;;;;;;;;;;;;-12.74;59.26;101025.02;1744842;81;22300;-80
2021/01/19 09:40:42;;;;;;;;;;;;;;;-12.65;59.47;101017.56;1754165;81;20263;-78
2021/01/19 09:43:13;;;;;;;;;;;;;;;-12.45;59.37;101015.02;1750217;81;20273;-80
2021/01/19 09:45:41;;;;;;;;;;;;;;;-12.33;59.01;101018.56;1744580;80;20292;-81
2021/01/19 09:48:12;;;;;;;;;;;;;;;-12.34;58.55;101019.03;1745018;80;20306;-77
2021/01/19 09:50:40;;;;;;;;;;;;;;;-12.41;58.51;101016.92;1750581;81;22416;-80
2021/01/19 09:53:10;;;;;;;;;;;;;;;-12.46;58.46;101017.23;1751448;80;20260;-80
2021/01/19 09:55:38;;;;;;;;;;;;;;;-12.49;58.78;101015.31;1746353;80;20276;-85
2021/01/19 09:58:05;;;;;;;;;;;;;;;-12.36;58.84;101018.30;1744703;80;20676;-83
2021/01/19 10:00:34;;;;;;;;;;;;;;;-12.24;58.59;101014.09;1758769;79;20316;-79
2021/01/19 10:03:13;;;;;;;;;;;;;;;-12.27;58.34;101013.03;1752926;80;22248;-81
2021/01/19 10:05:44;;;;;;;;;;;;;;;-12.42;58.20;101004.99;1740254;81;20276;-80
2021/01/19 10:08:11;;;;;;;;;;;;;;;-12.61;58.38;101009.19;1741110;81;20295;-83
2021/01/19 10:10:40;;;;;;;;;;;;;;;-12.69;58.68;101007.57;1750172;81;20304;-82
2021/01/19 10:13:08;;;;;;;;;;;;;;;-12.78;58.81;101002.06;1757319;80;20555;-82
2021/01/19 10:15:36;;;;;;;;;;;;;;;-12.84;59.00;100996.47;1755067;81;22094;-80
2021/01/19 10:18:04;;;;;;;;;;;;;;;-12.94;59.04;101001.36;1752858;79;20295;-80
2021/01/19 10:20:36;;;;;;;;;;;;;;;-13.02;59.19;100996.70;1746905;80;20272;-80
2021/01/19 10:23:06;;;;;;;;;;;;;;;-13.05;59.49;100998.17;1760397;81;20283;-79
2021/01/19 10:25:34;;;;;;;;;;;;;;;-12.92;59.70;100987.14;1759505;79;20657;-82
2021/01/19 10:28:03;;;;;;;;;;;;;;;-12.71;59.73;100988.82;1748405;80;20985;-77
2021/01/19 10:30:33;;;;;;;;;;;;;;;-12.59;59.63;100987.59;1742598;81;20261;-79
2021/01/19 10:33:00;;;;;;;;;;;;;;;-12.44;59.53;100988.81;1741161;81;20527;-79
2021/01/19 10:35:33;;;;;;;;;;;;;;;-12.30;59.54;100983.63;1750503;81;20210;-81
2021/01/19 10:38:03;;;;;;;;;;;;;;;-12.15;59.13;100981.78;1751371;80;20335;-81
2021/01/19 10:40:31;;;;;;;;;;;;;;;-12.05;59.04;100979.79;1747494;80;21915;-76
2021/01/19 10:43:03;;;;;;;;;;;;;;;-12.02;58.53;100978.77;1750047;80;20299;-81
2021/01/19 10:45:31;;;;;;;;;;;;;;;-11.99;58.27;100970.02;1752836;81;20297;-80
2021/01/19 10:47:59;;;;;;;;;;;;;;;-11.98;58.44;100967.80;1748993;80;20300;-80
2021/01/19 10:50:31;;;;;;;;;;;;;;;-11.82;58.45;100967.92;1757182;79;20953;-80
2021/01/19 10:53:04;;;;;;;;;;;;;;;-11.69;58.15;100960.67;1744303;81;21792;-77
2021/01/19 10:55:32;;;;;;;;;;;;;;;-11.72;57.82;100962.98;1625998;80;10000114;-81
2021/01/19 10:58:04;;;;;;;;;;;;;;;-11.78;57.67;100954.38;1756472;80;20249;-81
2021/01/19 11:00:33;;;;;;;;;;;;;;;-11.82;57.83;100950.36;1753686;81;20286;-82
2021/01/19 11:03:01;;;;;;;;;;;;;;;-11.84;57.64;100945.33;1752243;79;21400;-81
2021/01/19 11:05:29;;;;;;;;;;;;;;;-11.79;58.00;100955.31;1754676;79;20591;-79
2021/01/19 11:07:57;;;;;;;;;;;;;;;-11.74;57.56;100946.00;1749485;81;20298;-79
2021/01/19 11:10:25;;;;;;;;;;;;;;;-11.74;57.69;100946.83;1753436;80;20255;-80
2021/01/19 11:12:53;;;;;;;;;;;;;;;-11.67;57.76;100949.34;1754092;80;21007;-80
2021/01/19 11:15:21;;;;;;;;;;;;;;;-11.51;57.74;100941.86;1755899;80;21816;-80
2021/01/19 11:17:49;;;;;;;;;;;;;;;-11.39;57.65;100943.58;1751268;81;20243;-82
2021/01/19 11:20:20;;;;;;;;;;;;;;;-11.28;57.34;100940.28;1724089;81;20245;-81
2021/01/19 11:22:48;;;;;;;;;;;;;;;-11.24;56.99;100929.63;1726014;81;20227;-81
2021/01/19 11:25:16;;;;;;;;;;;;;;;-11.33;56.56;100934.13;1728040;82;20282;-81
2021/01/19 11:27:43;;;;;;;;;;;;;;;-11.54;56.79;100928.72;1721910;81;21363;-81
2021/01/19 11:30:13;;;;;;;;;;;;;;;-11.59;56.90;100929.02;1757587;80;20288;-81
2021/01/19 11:32:40;;;;;;;;;;;;;;;-11.60;56.93;100926.55;1757739;80;20274;-79
2021/01/19 11:35:08;;;;;;;;;;;;;;;-11.61;57.01;100924.45;1757603;80;20323;-81
2021/01/19 11:37:36;;;;;;;;;;;;;;;-11.51;57.37;100913.52;1756489;80;20365;-81
2021/01/19 11:40:05;;;;;;;;;;;;;;;-11.35;56.90;100916.20;1757582;80;21660;-81
2021/01/19 11:42:34;;;;;;;;;;;;;;;-11.36;56.86;100909.38;1763313;80;20232;-81
2021/01/19 11:45:04;;;;;;;;;;;;;;;-11.34;56.95;100908.82;1770157;79;20408;-79
2021/01/19 11:47:31;;;;;;;;;;;;;;;-11.45;56.67;100901.02;1724871;81;20277;-80
2021/01/19 11:49:59;;;;;;;;;;;;;;;-11.57;56.79;100903.16;1723362;81;20220;-80
2021/01/19 11:52:28;;;;;;;;;;;;;;;-11.54;57.03;100902.13;1705117;83;21838;-81
2021/01/19 11:54:55;;;;;;;;;;;;;;;-11.57;57.09;100904.44;1754683;80;20284;-78
2021/01/19 11:57:23;;;;;;;;;;;;;;;-11.63;57.09;100902.28;1752550;80;20312;-79
2021/01/19 11:59:51;;;;;;;;;;;;;;;-11.61;57.22;100903.83;1748392;80;20293;-79
2021/01/19 12:02:19;;;;;;;;;;;;;;;-11.60;57.29;100906.76;1743081;81;20224;-80
2021/01/19 12:04:47;;;;;;;;;;;;;;;-11.62;57.30;100904.73;1734738;82;21222;-79
2021/01/19 12:07:14;;;;;;;;;;;;;;;-11.66;57.41;100896.05;1746584;80;20261;-80
2021/01/19 12:09:42;;;;;;;;;;;;;;;-11.63;57.54;100900.52;1747038;81;20583;-81
2021/01/19 12:12:09;;;;;;;;;;;;;;;-11.66;57.38;100894.30;1749368;80;20384;-78
2021/01/19 12:14:37;;;;;;;;;;;;;;;-11.73;57.49;100898.22;1759812;80;20573;-79
2021/01/19 12:17:06;;;;;;;;;;;;;;;-11.81;57.66;100898.75;1739653;80;20986;-79
2021/01/19 12:19:34;;;;;;;;;;;;;;;-11.92;57.75;100893.52;1723530;81;20284;-80
2021/01/19 12:22:01;;;;;;;;;;;;;;;-11.97;57.95;100896.07;1749395;82;20269;-80
2021/01/19 12:24:30;;;;;;;;;;;;;;;-12.01;58.16;100895.42;1748867;80;20314;-81
2021/01/19 12:26:58;;;;;;;;;;;;;;;-12.00;58.33;100891.94;1749336;80;20292;-82
2021/01/19 12:29:29;;;;;;;;;;;;;;;-11.93;58.43;100893.64;1749050;80;21017;-80
2021/01/19 12:32:00;;;;;;;;;;;;;;;-11.92;58.45;100903.00;1750825;82;20760;-79
2021/01/19 12:34:28;;;;;;;;;;;;;;;-11.87;58.54;100898.37;1750287;80;20299;-79
2021/01/19 12:36:56;;;;;;;;;;;;;;;-11.82;58.59;100902.70;1747848;80;20288;-80
2021/01/19 12:39:23;;;;;;;;;;;;;;;-11.79;58.65;100905.08;1742813;80;20608;-79
2021/01/19 12:41:51;;;;;;;;;;;;;;;-11.82;58.67;100907.86;1747864;80;21519;-80
2021/01/19 12:44:19;;;;;;;;;;;;;;;-11.87;58.62;100910.79;1750066;80;20563;-80
2021/01/19 12:46:46;;;;;;;;;;;;;;;-12.03;58.71;100908.06;1749536;80;20495;-79